createdAt,value
2022-11-27T00:00:47.061Z,14.45
2022-11-27T00:03:34.127Z,16.45
2022-11-27T00:06:23.369Z,11.32
2022-11-27T00:09:15.243Z,10.63
2022-11-27T00:12:02.347Z,10.10
2022-11-27T00:14:54.654Z,17.25
2022-11-27T00:17:42.543Z,11.00
2022-11-27T00:20:30.037Z,12.27
2022-11-27T00:23:16.939Z,19.60
2022-11-27T00:26:05.324Z,12.48
2022-11-27T00:28:52.488Z,15.48
2022-11-27T00:31:39.461Z,14.73
2022-11-27T00:34:26.595Z,9.55
2022-11-27T00:37:14.872Z,12.63
2022-11-27T00:40:02.129Z,10.57
2022-11-27T00:42:49.089Z,12.80
2022-11-27T00:45:36.026Z,15.77
2022-11-27T00:48:23.230Z,10.85
2022-11-27T00:51:16.304Z,10.20
2022-11-27T00:54:04.530Z,11.27
2022-11-27T00:56:51.466Z,8.80
2022-11-27T00:59:38.420Z,13.30
2022-11-27T01:02:25.497Z,12.27
2022-11-27T01:05:12.669Z,13.80
2022-11-27T01:07:59.641Z,16.05
2022-11-27T01:10:56.083Z,18.88
2022-11-27T01:13:43.054Z,12.65
2022-11-27T01:16:32.016Z,13.13
2022-11-27T01:19:19.484Z,9.68
2022-11-27T01:22:06.604Z,10.50
2022-11-27T01:24:53.525Z,17.42
2022-11-27T01:27:40.481Z,12.20
2022-11-27T01:30:27.393Z,11.73
2022-11-27T01:33:14.421Z,13.55
2022-11-27T01:36:03.775Z,10.30
2022-11-27T01:38:51.218Z,13.88
2022-11-27T01:41:41.484Z,10.57
2022-11-27T01:44:50.809Z,9.32
2022-11-27T01:47:45.875Z,8.13
2022-11-27T01:50:39.179Z,7.32
2022-11-27T01:53:26.160Z,8.77
2022-11-27T01:56:14.821Z,11.65
2022-11-27T01:59:03.791Z,11.48
2022-11-27T02:01:50.864Z,12.95
2022-11-27T02:04:38.206Z,11.43
2022-11-27T02:07:25.659Z,12.95
2022-11-27T02:10:13.206Z,10.68
2022-11-27T02:13:07.576Z,9.95
2022-11-27T02:16:06.949Z,10.25
2022-11-27T02:19:17.026Z,10.30
2022-11-27T02:22:14.896Z,11.25
2022-11-27T02:25:16.541Z,13.98
2022-11-27T02:28:50.005Z,9.13
2022-11-27T02:31:53.312Z,8.50
2022-11-27T02:34:58.908Z,13.93
2022-11-27T02:38:00.029Z,9.88
2022-11-27T02:41:03.023Z,13.80
2022-11-27T02:43:53.195Z,10.35
2022-11-27T02:46:41.947Z,12.73
2022-11-27T02:49:29.284Z,15.90
2022-11-27T02:52:18.657Z,8.02
2022-11-27T02:55:11.352Z,10.82
2022-11-27T02:58:02.096Z,10.88
2022-11-27T03:00:50.670Z,10.00
2022-11-27T03:03:43.824Z,12.32
2022-11-27T03:06:39.455Z,9.75
2022-11-27T03:09:34.400Z,8.52
2022-11-27T03:12:21.433Z,11.85
2022-11-27T03:15:09.353Z,13.80
2022-11-27T03:18:06.775Z,10.30
2022-11-27T03:21:19.168Z,9.90
2022-11-27T03:24:08.094Z,12.10
2022-11-27T03:26:57.083Z,12.25
2022-11-27T03:29:54.467Z,22.83
2022-11-27T03:32:41.511Z,28.58
2022-11-27T03:35:28.537Z,70.05
2022-11-27T03:38:15.474Z,37.03
2022-11-27T03:41:10.016Z,44.47
2022-11-27T03:44:23.719Z,78.65
2022-11-27T03:48:06.220Z,69.35
2022-11-27T03:51:19.292Z,104.50
2022-11-27T03:54:40.105Z,107.68
2022-11-27T03:57:59.140Z,40.80
2022-11-27T04:00:50.129Z,82.78
2022-11-27T04:03:37.403Z,133.77
2022-11-27T04:06:24.478Z,128.57
2022-11-27T04:09:11.413Z,165.00
2022-11-27T04:11:58.364Z,65.97
2022-11-27T04:14:45.281Z,28.80
2022-11-27T04:17:32.469Z,37.17
2022-11-27T04:20:19.384Z,15.27
2022-11-27T04:23:06.408Z,17.65
2022-11-27T04:25:53.417Z,10.68
2022-11-27T04:28:40.452Z,14.40
2022-11-27T04:31:27.422Z,14.23
2022-11-27T04:34:14.451Z,10.00
2022-11-27T04:37:01.351Z,11.05
2022-11-27T04:39:48.295Z,10.82
2022-11-27T04:42:35.310Z,13.05
2022-11-27T04:45:22.363Z,13.75
2022-11-27T04:48:09.325Z,10.25
2022-11-27T04:50:56.248Z,8.60
2022-11-27T04:53:43.188Z,11.05
2022-11-27T04:56:30.332Z,9.38
2022-11-27T04:59:17.342Z,8.73
2022-11-27T05:02:04.506Z,10.77
2022-11-27T05:04:51.420Z,14.40
2022-11-27T05:07:38.430Z,11.52
2022-11-27T05:10:25.409Z,9.27
2022-11-27T05:13:12.364Z,11.98
2022-11-27T05:15:59.336Z,11.48
2022-11-27T05:18:46.282Z,15.23
2022-11-27T05:21:33.200Z,12.70
2022-11-27T05:24:21.623Z,12.43
2022-11-27T05:27:08.544Z,11.13
2022-11-27T05:29:55.509Z,10.57
2022-11-27T05:32:42.411Z,12.25
2022-11-27T05:35:29.395Z,15.25
2022-11-27T05:38:16.313Z,11.95
2022-11-27T05:41:03.304Z,10.48
2022-11-27T05:43:50.401Z,9.68
2022-11-27T05:46:37.350Z,9.13
2022-11-27T05:49:24.327Z,12.55
2022-11-27T05:52:11.258Z,9.02
2022-11-27T05:54:58.238Z,11.38
2022-11-27T05:57:45.407Z,8.43
2022-11-27T06:00:32.374Z,9.43
2022-11-27T06:03:19.575Z,10.23
2022-11-27T06:06:12.200Z,9.27
2022-11-27T06:08:59.194Z,11.15
2022-11-27T06:11:46.127Z,10.15
2022-11-27T06:14:35.067Z,10.27
2022-11-27T06:17:21.893Z,12.25
2022-11-27T06:20:09.422Z,8.93
2022-11-27T06:22:57.326Z,13.50
2022-11-27T06:25:44.343Z,11.35
2022-11-27T06:28:31.239Z,12.52
2022-11-27T06:31:21.535Z,14.25
2022-11-27T06:34:08.502Z,11.07
2022-11-27T06:36:55.363Z,9.90
2022-11-27T06:39:42.362Z,16.65
2022-11-27T06:42:30.344Z,16.63
2022-11-27T06:45:17.343Z,9.88
2022-11-27T06:48:04.391Z,10.85
2022-11-27T06:50:51.292Z,10.45
2022-11-27T06:53:39.293Z,11.70
2022-11-27T06:56:28.336Z,11.43
2022-11-27T06:59:15.636Z,9.27
2022-11-27T07:02:02.553Z,12.63
2022-11-27T07:04:49.541Z,11.73
2022-11-27T07:07:39.783Z,10.98
2022-11-27T07:10:35.059Z,15.27
2022-11-27T07:13:21.885Z,17.70
2022-11-27T07:16:10.485Z,22.48
2022-11-27T07:19:05.953Z,29.70
2022-11-27T07:21:52.880Z,30.15
2022-11-27T07:24:40.095Z,44.08
2022-11-27T07:27:27.175Z,38.33
2022-11-27T07:30:14.839Z,37.15
2022-11-27T07:33:01.788Z,34.53
2022-11-27T07:35:48.694Z,34.72
2022-11-27T07:38:35.659Z,39.60
2022-11-27T07:41:22.585Z,39.42
2022-11-27T07:44:10.088Z,45.33
2022-11-27T07:46:59.861Z,41.10
2022-11-27T07:49:46.764Z,52.83
2022-11-27T07:52:41.108Z,44.40
2022-11-27T07:55:28.624Z,45.92
2022-11-27T07:58:15.479Z,48.40
2022-11-27T08:01:07.971Z,42.50
2022-11-27T08:03:54.883Z,46.17
2022-11-27T08:06:42.031Z,44.75
2022-11-27T08:09:30.191Z,41.85
2022-11-27T08:12:17.149Z,45.60
2022-11-27T08:15:05.726Z,49.17
2022-11-27T08:17:52.634Z,44.28
2022-11-27T08:20:39.548Z,47.83
2022-11-27T08:23:26.449Z,44.80
2022-11-27T08:26:13.880Z,42.85
2022-11-27T08:29:00.971Z,44.42
2022-11-27T08:31:47.961Z,49.38
2022-11-27T08:34:34.899Z,54.83
2022-11-27T08:37:22.095Z,39.05
2022-11-27T08:40:09.810Z,46.05
2022-11-27T08:42:58.504Z,54.65
2022-11-27T08:45:45.475Z,48.60
2022-11-27T08:48:32.398Z,43.60
2022-11-27T08:51:19.319Z,44.35
2022-11-27T08:54:06.204Z,40.28
2022-11-27T08:56:53.102Z,45.08
2022-11-27T08:59:40.012Z,38.13
2022-11-27T09:02:27.160Z,40.72
2022-11-27T09:05:14.102Z,45.40
2022-11-27T09:08:02.555Z,31.27
2022-11-27T09:10:49.584Z,33.72
2022-11-27T09:13:38.172Z,33.83
2022-11-27T09:16:25.131Z,33.38
2022-11-27T09:19:12.017Z,27.20
2022-11-27T09:21:59.545Z,28.15
2022-11-27T09:24:46.986Z,28.95
2022-11-27T09:27:33.910Z,27.77
2022-11-27T09:30:20.932Z,32.88
2022-11-27T09:33:07.819Z,37.97
2022-11-27T09:35:55.054Z,39.47
2022-11-27T09:38:42.682Z,38.85
2022-11-27T09:41:59.708Z,40.65
2022-11-27T09:44:54.551Z,34.45
2022-11-27T09:47:49.881Z,34.00
2022-11-27T09:50:42.558Z,33.53
2022-11-27T09:53:40.463Z,39.50
2022-11-27T09:56:28.288Z,28.98
2022-11-27T09:59:21.723Z,30.98
2022-11-27T10:02:24.229Z,31.30
2022-11-27T10:05:20.881Z,31.02
2022-11-27T10:08:36.516Z,30.67
2022-11-27T10:12:05.578Z,31.20
2022-11-27T10:15:07.498Z,33.72
2022-11-27T10:18:22.428Z,23.13
2022-11-27T10:21:49.757Z,28.75
2022-11-27T10:24:46.284Z,23.90
2022-11-27T10:31:43.217Z,30.05
2022-11-27T10:34:48.629Z,23.27
2022-11-27T10:38:05.262Z,13.85
2022-11-27T10:41:49.741Z,18.00
2022-11-27T10:44:44.269Z,11.32
2022-11-27T10:47:33.864Z,11.77
2022-11-27T10:50:21.183Z,14.25
2022-11-27T10:53:20.149Z,15.93
2022-11-27T10:56:50.188Z,14.98
2022-11-27T10:59:43.804Z,20.05
2022-11-27T11:02:37.884Z,21.75
2022-11-27T11:05:45.557Z,19.40
2022-11-27T11:08:37.281Z,16.00
2022-11-27T11:11:26.539Z,17.25
2022-11-27T11:14:21.207Z,16.58
2022-11-27T11:17:16.495Z,19.42
2022-11-27T11:20:32.906Z,13.23
2022-11-27T11:23:27.106Z,22.10
2022-11-27T11:26:33.321Z,11.32
2022-11-27T11:29:35.363Z,11.23
2022-11-27T11:32:34.968Z,9.18
2022-11-27T11:35:32.703Z,11.00
2022-11-27T11:38:27.232Z,11.88
2022-11-27T11:41:17.943Z,11.30
2022-11-27T11:44:05.084Z,9.93
2022-11-27T11:46:53.848Z,20.35
2022-11-27T11:49:40.795Z,16.00
2022-11-27T11:52:54.691Z,13.70
2022-11-27T11:56:19.020Z,19.33
2022-11-27T11:59:45.183Z,11.75
2022-11-27T12:03:11.284Z,18.20
2022-11-27T12:06:36.176Z,16.65
2022-11-27T12:10:15.390Z,23.98
2022-11-27T12:13:34.113Z,17.92
2022-11-27T12:17:13.218Z,17.73
2022-11-27T12:20:18.707Z,16.88
2022-11-27T12:23:51.874Z,17.95
2022-11-27T12:27:06.609Z,17.10
2022-11-27T12:30:20.773Z,19.00
2022-11-27T12:33:48.686Z,21.65
2022-11-27T12:37:13.744Z,16.73
2022-11-27T12:40:36.296Z,18.35
2022-11-27T12:43:27.985Z,19.85
2022-11-27T12:47:06.911Z,15.10
2022-11-27T12:50:09.768Z,15.43
2022-11-27T12:53:11.740Z,15.82
2022-11-27T12:56:33.871Z,16.20
2022-11-27T12:59:33.691Z,18.38
2022-11-27T13:02:46.815Z,21.67
2022-11-27T13:06:13.026Z,20.90
2022-11-27T13:09:07.730Z,21.40
2022-11-27T13:11:56.620Z,17.17
2022-11-27T13:14:52.687Z,19.50
2022-11-27T13:17:42.432Z,20.30
2022-11-27T13:20:36.696Z,22.75
2022-11-27T13:23:23.784Z,21.00
2022-11-27T13:26:35.171Z,28.88
2022-11-27T13:29:34.071Z,23.67
2022-11-27T13:32:24.966Z,29.17
2022-11-27T13:35:28.560Z,22.17
2022-11-27T13:38:23.229Z,19.65
2022-11-27T13:41:21.175Z,18.90
2022-11-27T13:44:27.314Z,20.45
2022-11-27T13:47:17.703Z,23.15
2022-11-27T13:50:16.575Z,32.03
2022-11-27T13:53:06.267Z,24.90
2022-11-27T13:55:54.970Z,26.27
2022-11-27T13:58:43.127Z,20.05
2022-11-27T14:01:30.118Z,20.85
2022-11-27T14:04:17.096Z,22.42
2022-11-27T14:07:11.725Z,22.13
2022-11-27T14:10:08.717Z,18.60
2022-11-27T14:13:01.695Z,26.30
2022-11-27T14:18:56.864Z,25.05
2022-11-27T14:21:44.352Z,24.08
2022-11-27T14:24:43.421Z,28.70
2022-11-27T14:27:35.838Z,24.50
2022-11-27T14:30:48.397Z,25.45
2022-11-27T14:33:59.636Z,31.30
2022-11-27T14:36:42.486Z,32.40
2022-11-27T14:39:36.916Z,29.77
2022-11-27T14:42:30.650Z,28.98
2022-11-27T14:45:21.894Z,28.15
2022-11-27T14:48:20.154Z,26.00
2022-11-27T14:51:13.711Z,29.77
2022-11-27T14:54:03.191Z,29.15
2022-11-27T14:56:50.575Z,27.48
2022-11-27T14:59:37.496Z,25.02
2022-11-27T15:02:29.250Z,28.60
2022-11-27T15:05:22.665Z,30.10
2022-11-27T15:08:10.532Z,23.38
2022-11-27T15:10:59.623Z,27.10
2022-11-27T15:13:55.708Z,27.73
2022-11-27T15:16:49.576Z,27.55
2022-11-27T15:19:37.727Z,25.50
2022-11-27T15:22:24.823Z,19.95
2022-11-27T15:25:35.597Z,28.50
2022-11-27T15:28:58.504Z,24.15
2022-11-27T15:31:51.557Z,25.95
2022-11-27T15:34:38.718Z,24.10
2022-11-27T15:37:31.291Z,21.27
2022-11-27T15:40:35.985Z,33.13
2022-11-27T15:43:22.825Z,24.45
2022-11-27T15:46:12.911Z,29.25
2022-11-27T15:48:59.918Z,28.98
2022-11-27T15:51:46.843Z,28.67
2022-11-27T15:54:33.693Z,24.08
2022-11-27T15:57:21.128Z,30.33
2022-11-27T16:00:10.103Z,28.13
2022-11-27T16:02:57.366Z,24.02
2022-11-27T16:05:44.278Z,25.92
2022-11-27T16:08:31.497Z,26.02
2022-11-27T16:11:19.706Z,27.95
2022-11-27T16:14:06.879Z,27.95
2022-11-27T16:16:53.840Z,29.42
2022-11-27T16:19:41.113Z,23.45
2022-11-27T16:22:28.022Z,27.67
2022-11-27T16:25:15.065Z,25.90
2022-11-27T16:28:03.220Z,31.13
2022-11-27T16:30:53.948Z,24.13
2022-11-27T16:33:41.706Z,22.77
2022-11-27T16:36:29.298Z,29.83
2022-11-27T16:39:17.386Z,30.55
2022-11-27T16:42:04.434Z,30.42
2022-11-27T16:44:51.301Z,27.73
2022-11-27T16:47:38.172Z,25.23
2022-11-27T16:50:26.658Z,23.40
2022-11-27T16:53:13.511Z,23.52
2022-11-27T16:56:00.320Z,28.83
2022-11-27T16:58:48.142Z,25.88
2022-11-27T17:01:36.336Z,23.85
2022-11-27T17:04:23.434Z,28.83
2022-11-27T17:07:11.047Z,26.35
2022-11-27T17:09:58.034Z,36.30
2022-11-27T17:12:44.895Z,19.88
2022-11-27T17:15:40.396Z,27.13
2022-11-27T17:18:27.669Z,23.00
2022-11-27T17:21:34.769Z,23.33
2022-11-27T17:24:21.629Z,34.20
2022-11-27T17:27:08.545Z,27.17
2022-11-27T17:29:55.418Z,166.50
2022-11-27T17:32:42.311Z,65.85
2022-11-27T17:35:30.570Z,50.92
2022-11-27T17:38:17.714Z,38.70
2022-11-27T17:41:07.961Z,34.25
2022-11-27T17:43:54.905Z,28.88
2022-11-27T17:46:44.893Z,26.85
2022-11-27T17:49:31.746Z,26.08
2022-11-27T17:52:18.662Z,30.45
2022-11-27T17:55:06.365Z,31.98
2022-11-27T17:57:53.796Z,23.23
2022-11-27T18:00:40.767Z,24.55
2022-11-27T18:03:29.210Z,20.88
2022-11-27T18:06:18.396Z,26.08
2022-11-27T18:09:05.493Z,23.48
2022-11-27T18:11:54.824Z,29.30
2022-11-27T18:14:41.762Z,24.90
2022-11-27T18:17:29.356Z,25.38
2022-11-27T18:20:16.365Z,25.80
2022-11-27T18:23:04.326Z,29.00
2022-11-27T18:25:51.431Z,27.17
2022-11-27T18:28:38.820Z,30.50
2022-11-27T18:31:27.085Z,27.77
2022-11-27T18:34:13.997Z,23.58
2022-11-27T18:37:00.990Z,32.03
2022-11-27T18:39:47.984Z,53.83
2022-11-27T18:42:35.101Z,46.53
2022-11-27T18:45:32.955Z,45.03
2022-11-27T18:48:20.729Z,34.70
2022-11-27T18:51:10.142Z,28.20
2022-11-27T18:53:57.271Z,30.25
2022-11-27T18:56:44.191Z,116.00
2022-11-27T18:59:31.091Z,68.78
2022-11-27T19:02:18.062Z,43.47
2022-11-27T19:05:05.411Z,33.60
2022-11-27T19:07:52.543Z,31.90
2022-11-27T19:10:39.416Z,24.85
2022-11-27T19:13:26.389Z,23.17
2022-11-27T19:16:24.864Z,28.08
2022-11-27T19:22:26.158Z,34.85
2022-11-27T19:25:13.210Z,24.83
2022-11-27T19:28:00.120Z,26.05
2022-11-27T19:30:47.039Z,27.42
2022-11-27T19:33:36.109Z,26.48
2022-11-27T19:36:23.355Z,27.27
2022-11-27T19:39:14.619Z,31.10
2022-11-27T19:42:01.541Z,24.58
2022-11-27T19:44:48.451Z,24.45
2022-11-27T19:47:35.364Z,28.35
2022-11-27T19:50:22.253Z,29.20
2022-11-27T19:53:09.189Z,28.58
2022-11-27T19:55:56.175Z,29.30
2022-11-27T19:58:43.750Z,28.70
2022-11-27T20:01:30.806Z,43.13
2022-11-27T20:04:17.796Z,37.80
2022-11-27T20:07:04.920Z,35.53
2022-11-27T20:09:52.260Z,27.55
2022-11-27T20:12:39.181Z,49.63
2022-11-27T20:15:26.304Z,30.60
2022-11-27T20:18:13.176Z,35.67
2022-11-27T20:21:12.166Z,24.23
2022-11-27T20:23:59.088Z,17.20
2022-11-27T20:26:46.081Z,36.25
2022-11-27T20:29:33.140Z,66.53
2022-11-27T20:32:20.046Z,69.68
2022-11-27T20:35:07.343Z,69.75
2022-11-27T20:37:54.331Z,46.72
2022-11-27T20:40:41.223Z,18.52
2022-11-27T20:43:28.327Z,32.17
2022-11-27T20:46:16.433Z,84.43
2022-11-27T20:49:04.290Z,59.10
2022-11-27T20:51:51.630Z,62.60
2022-11-27T20:54:38.606Z,28.65
2022-11-27T20:57:25.538Z,59.30
2022-11-27T21:00:13.013Z,36.78
2022-11-27T21:02:59.917Z,46.60
2022-11-27T21:05:48.188Z,78.28
2022-11-27T21:08:35.560Z,64.88
2022-11-27T21:11:25.298Z,77.88
2022-11-27T21:14:14.700Z,68.93
2022-11-27T21:17:05.019Z,38.63
2022-11-27T21:19:52.741Z,53.22
2022-11-27T21:22:42.574Z,50.97
2022-11-27T21:25:29.563Z,73.35
2022-11-27T21:28:16.481Z,45.30
2022-11-27T21:31:18.391Z,85.80
2022-11-27T21:34:07.287Z,73.97
2022-11-27T21:36:54.171Z,50.05
2022-11-27T21:39:41.350Z,67.28
2022-11-27T21:42:29.261Z,60.58
2022-11-27T21:45:19.146Z,52.88
2022-11-27T21:48:09.960Z,39.28
2022-11-27T21:51:04.967Z,56.78
2022-11-27T21:53:53.417Z,28.83
2022-11-27T21:56:40.911Z,48.05
2022-11-27T21:59:27.793Z,39.40
2022-11-27T22:02:14.708Z,36.22
2022-11-27T22:05:01.650Z,33.30
2022-11-27T22:07:48.623Z,36.65
2022-11-27T22:10:39.606Z,38.38
2022-11-27T22:13:28.268Z,56.53
2022-11-27T22:16:21.320Z,47.60
2022-11-27T22:19:08.493Z,42.20
2022-11-27T22:21:55.444Z,33.67
2022-11-27T22:24:42.893Z,32.70
2022-11-27T22:27:30.189Z,31.85
2022-11-27T22:30:17.719Z,37.00
2022-11-27T22:33:04.654Z,31.88
2022-11-27T22:35:51.693Z,31.98
2022-11-27T22:38:38.988Z,56.05
2022-11-27T22:41:28.030Z,53.25
2022-11-27T22:44:17.244Z,48.67
2022-11-27T22:47:04.231Z,63.60
2022-11-27T22:49:51.164Z,56.55
2022-11-27T22:52:38.139Z,83.88
2022-11-27T22:55:25.049Z,84.00
2022-11-27T22:58:11.969Z,132.02
2022-11-27T23:00:59.381Z,53.50
2022-11-27T23:03:46.464Z,38.45
2022-11-27T23:06:33.437Z,87.38
2022-11-27T23:09:20.415Z,89.57
2022-11-27T23:12:07.418Z,65.88
2022-11-27T23:14:54.398Z,73.32
2022-11-27T23:17:41.388Z,124.53
2022-11-27T23:20:28.527Z,89.70
2022-11-27T23:23:15.432Z,100.22
2022-11-27T23:26:07.358Z,241.05
2022-11-27T23:28:54.301Z,90.07
2022-11-27T23:31:41.393Z,158.60
2022-11-27T23:34:28.956Z,260.55
2022-11-27T23:37:15.940Z,154.00
2022-11-27T23:40:03.007Z,185.98
2022-11-27T23:42:50.050Z,244.77
2022-11-27T23:45:38.196Z,261.88
2022-11-27T23:48:25.164Z,142.05
2022-11-27T23:51:19.619Z,206.27
2022-11-27T23:54:09.352Z,100.53
2022-11-27T23:56:56.540Z,39.00
2022-11-27T23:59:43.739Z,18.98
